Northern & Central Napa County

33 Stations

15 Minute Data | America/Los_Angeles
as of 9/5/26 4:56 PM PDT
Station Date Time Temp (°F) RH (%) Dew Pt (°F) Wind Spd (mph) Wind Dir (°) Wind Gust (mph) Latest Rain (In) Daily Rain (In) Daily Max Temp (°F) Daily Min Temp (°F)
Tenma (North Calistoga) 9/5/26 1645 81.9   6.0 - - - - - 0.00 0.00 84.0   3.7 44.1   7.8
Calistoga-Solari 9/5/26 1645 78.6   3.6 26   14 41.4   8.2 7.0   0.1 WSW | 239 12.4   3.7 0.00 0.00 80.7   3.2 43.1   5.6
Calistoga-North 9/5/26 1645 78.3   3.1 32   12 46.1   5.7 - - - 0.00 0.00 84.8   4.4 45.1   5.2
Twomey Calistoga 9/5/26 1645 79.5   3.2 27   11 42.9   5.9 5.2   1.3 W | 264 12.5   1.5 0.00 0.00 84.2   3.5 39.7   9.1
Paloma 9/5/26 1645 80.8   3.3 29   12 45.8   6.0 6.4   1.0 NNE | 27 11.3   2.1 0.00 0.00 84.1   2.8 41.1   10.0
Calistoga (Ranch 78) 9/5/26 1645 78.8   2.5 26   11 40.8   7.3 4.8   0.7 WSW | 241 11.2   4.2 0.00 0.00 81.7   2.1 41.5   10.7
Diamond Mtn (Schramsberg) 9/5/26 1645 75.9   2.7 30   10 42.4   5.0 - - - 0.00 0.00 79.5   3.8 50.2   1.0
Diamond Mtn (McEachran) 9/5/26 1645 76.4   2.9 31   10 43.4   4.6 - - - - - 79.7   3.8 49.3   2.4
Deer Park 9/5/26 1645 79.1   3.2 25   12 40.8   7.2 6.5   0.4 WSW | 238 12.8   1.3 0.00 0.00 82.9   5.1 50.1   4.3
St. Helena-North 9/5/26 1645 79.4   2.5 24   10 39.9   6.5 2.7   0.7 W | 264 7.5   5.5 0.00 0.00 83.5   3.2 46.2   5.5
St. Helena (NVV Office) 9/5/26 1645 82.1   3.2 - - 2.4   0.1 WSW | 253 6.5   0.7 0.00 0.00 84.2   4.2 46.3   2.7
Tiara Fria (East St. Helena) 9/5/26 1645 81.1   4.2 29   9 45.4   3.9 5.3   1.6 WSW | 253 10.2   3.5 0.00 0.00 83.1   4.2 43.2   6.0
Prisoner Winery 9/5/26 1645 81.3   4.1 27   10 44.6   4.5 3.7   0.3 WSW | 254 9.0   0.4 0.00 0.00 85.8   5.8 44.0   4.2
Rutherford Hill Estate 9/5/26 1645 81.4   2.5 28   8 45.2   4.8 3.3   0.4 SW | 218 9.2   4.6 0.00 0.00 85.5   4.2 49.7   1.8
Rutherford-North (Mee Ln) 9/5/26 1645 81.6   4.8 29   10 46.4   4.0 5.1   2.0 WSW | 244 11.2   3.5 0.00 0.00 83.2   2.1 41.6   2.4
Rutherford (STS) 9/5/26 1645 80.8   2.9 34   9 49.6   4.1 7.1   1.3 W | 262 15.9   3.4 0.00 0.00 84.9   1.9 41.1   4.5
Silver Oak OV 9/5/26 1645 80.1   2.6 30   8 46.0   4.2 7.0   1.2 SW | 236 12.8   2.0 0.00 0.00 82.8   3.2 41.7   8.5
Oakville-NE (Ranch 88) 9/5/26 1645 81.8   3.5 26   9 43.4   4.5 4.6   0.1 W | 269 8.6   4.5 0.00 0.00 84.1   3.2 40.3   8.6
Crossroads Ranch 9/5/26 1645 79.9   3.0 36   8 50.7   3.0 6.4   0.2 WSW | 242 11.2   0.9 0.00 0.00 82.6   2.6 42.1   9.3
Oakville 9/5/26 1645 80.3   2.8 29   8 45.1   4.3 7.0   0.3 WSW | 251 13.6   0.4 0.00 0.00 82.3   2.1 42.2   9.1
To Kalon Remote (TKKE) 9/5/26 1645 81.8   3.1 - - - - - - - 83.9   3.4 43.0   4.5
To Kalon 9/5/26 1645 79.1   3.3 32   9 46.8   3.6 4.7   0.9 W | 266 11.3   1.3 0.00 0.00 83.1   3.0 43.7   4.9
To Kalon Remote (TKN5) 9/5/26 1645 80.3   2.7 - - - - - - - 83.4   3.1 43.2   4.8
Jump Rock 9/5/26 1645 76.2   5.1 38   14 48.6   4.0 3.7   1.3 NW | 311 9.0   4.0 0.00 0.00 77.3   3.8 40.8   5.2
State Lane Ranch 9/5/26 1645 82.5   5.3 33   12 50.6   4.0 6.3   1.7 WSW | 248 12.4   4.6 0.00 0.00 84.3   4.6 40.9   11.6
Yountville (Ranch 67) 9/5/26 1645 79.7   2.1 29   6 44.2   3.5 6.0   0.4 WSW | 258 11.9   0.0 0.00 0.00 82.1   3.9 41.4   11.3
Borreo (Soda Canyon) 9/5/26 1600 79.4   5.5 27   17 43.0   8.3 3.2   2.0 SSW | 201 9.5   2.5 0.00 0.00 80.1   4.0 45.7   4.3
Wappo Hill Floor 9/5/26 1645 81.1   5.8 28   12 44.5   4.7 4.5   3.0 W | 270 11.8   3.0 0.00 0.00 82.5   2.6 41.8   10.3
Wappo Hill 9/5/26 1645 80.1   5.1 29   11 44.6   4.3 8.1   3.3 W | 263 15.5   3.2 0.00 0.00 83.2   3.9 46.9   7.4
Stags Leap Dist (Chimney Rock) 9/5/26 1645 80.7   3.9 37   7 52.1   1.2 5.6   1.1 SSW | 208 11.5   1.5 0.00 0.00 82.5   2.8 41.7   13.9
Stags Leap Dist (Silverado Vineyards) 9/5/26 1645 82.1   5.0 27   9 44.5   3.8 1.3   3.2 W | 267 4.2   5.7 0.00 0.00 83.0   3.7 42.4   10.9
Yountville-SE (Ranch 85) 9/5/26 1645 81.7   4.4 31   7 48.5   1.9 2.7   0.1 WSW | 255 8.5   1.0 0.00 0.00 83.0   4.1 43.2   11.6
Yountville-South (Ranch 87) 9/5/26 1645 80.2   4.5 32   8 48.0   2.1 4.0   2.1 WSW | 239 8.6   2.7 0.00 0.00 83.3   4.4 42.8   11.3
Max     82.5 38 52.1 8.1 - 15.9 0.00 0.00 85.8 50.2
Avg     80.1 30 45.3 5.0 - 10.7 0.00 - - -
Min     75.9 24 39.9 1.3 - 4.2 0.00 0.00 77.3 39.7